Time;durP1;ratioP1;P1;durP2;ratioP2;P2;SDS_P1;SDS_P2;PMS_P1;PMS_P2;Temp;Humidity;BMP_temperature;BMP_pressure;BME280_temperature;BME280_humidity;BME280_pressure;Samples;Min_cycle;Max_cycle;Signal;HPM_P1;HPM_P2
2023/09/12 00:00:07;;;;;;;19.95;17.50;;;;;;;;;;5069499;28;41274;-77
2023/09/12 00:02:41;;;;;;;22.75;18.10;;;;;;;;;;5066684;28;41370;-78
2023/09/12 00:05:09;;;;;;;23.02;18.20;;;;;;;;;;5070896;28;41771;-78
2023/09/12 00:07:37;;;;;;;23.10;18.25;;;;;;;;;;5069237;28;42152;-78
2023/09/12 00:10:05;;;;;;;24.70;19.80;;;;;;;;;;5070657;28;42670;-77
2023/09/12 00:12:33;;;;;;;27.95;21.10;;;;;;;;;;5069618;28;40324;-77
2023/09/12 00:15:04;;;;;;;25.27;19.58;;;;;;;;;;5069852;28;41676;-77
2023/09/12 00:17:32;;;;;;;27.23;19.95;;;;;;;;;;5067141;28;41728;-77
2023/09/12 00:20:00;;;;;;;27.58;20.48;;;;;;;;;;5070244;28;42556;-76
2023/09/12 00:22:28;;;;;;;25.67;20.55;;;;;;;;;;5067413;28;40936;-78
2023/09/12 00:24:56;;;;;;;25.85;20.90;;;;;;;;;;5068972;28;38956;-77
2023/09/12 00:27:24;;;;;;;28.58;20.85;;;;;;;;;;5068167;28;40621;-77
2023/09/12 00:29:52;;;;;;;25.92;21.08;;;;;;;;;;5069712;28;42863;-78
2023/09/12 00:32:22;;;;;;;28.48;21.17;;;;;;;;;;5068461;28;39330;-78
2023/09/12 00:34:50;;;;;;;25.35;21.27;;;;;;;;;;5069454;28;41020;-78
2023/09/12 00:37:18;;;;;;;28.65;21.60;;;;;;;;;;5067668;28;41485;-78
2023/09/12 00:39:47;;;;;;;29.45;22.10;;;;;;;;;;5068690;28;40290;-76
2023/09/12 00:42:15;;;;;;;27.55;22.50;;;;;;;;;;5068754;28;43099;-78
2023/09/12 00:44:43;;;;;;;28.35;22.90;;;;;;;;;;5069045;28;41241;-78
2023/09/12 00:47:11;;;;;;;28.13;21.15;;;;;;;;;;5055936;28;42637;-76
2023/09/12 00:49:41;;;;;;;27.52;22.10;;;;;;;;;;5067679;28;41240;-76
2023/09/12 00:52:09;;;;;;;26.65;22.98;;;;;;;;;;5069297;28;40586;-78
2023/09/12 00:54:37;;;;;;;28.48;23.67;;;;;;;;;;5068066;28;41431;-78
2023/09/12 00:57:05;;;;;;;27.95;22.55;;;;;;;;;;5069559;28;41137;-78
2023/09/12 00:59:33;;;;;;;26.80;23.02;;;;;;;;;;5069064;28;41195;-77
2023/09/12 01:02:01;;;;;;;36.25;27.63;;;;;;;;;;5069746;28;42414;-77
2023/09/12 01:04:29;;;;;;;31.45;24.92;;;;;;;;;;5068455;28;40615;-77
2023/09/12 01:07:05;;;;;;;37.00;27.20;;;;;;;;;;5067026;28;40047;-76
2023/09/12 01:09:33;;;;;;;29.67;23.50;;;;;;;;;;5066380;28;41761;-77
2023/09/12 01:12:02;;;;;;;26.23;22.80;;;;;;;;;;5067299;28;40043;-77
2023/09/12 01:14:30;;;;;;;29.88;24.00;;;;;;;;;;5068645;28;41451;-78
2023/09/12 01:16:59;;;;;;;26.08;21.15;;;;;;;;;;5068951;28;42065;-77
2023/09/12 01:19:27;;;;;;;24.67;21.25;;;;;;;;;;5068012;28;40322;-78
2023/09/12 01:22:04;;;;;;;25.90;21.17;;;;;;;;;;5069099;28;41652;-76
2023/09/12 01:24:50;;;;;;;28.17;21.13;;;;;;;;;;5067732;28;42305;-76
2023/09/12 01:27:21;;;;;;;25.77;20.40;;;;;;;;;;5065411;28;42235;-76
2023/09/12 01:29:50;;;;;;;29.50;20.45;;;;;;;;;;5065457;28;42691;-76
2023/09/12 01:32:18;;;;;;;23.95;19.92;;;;;;;;;;5068149;28;40410;-76
2023/09/12 01:34:46;;;;;;;25.25;19.55;;;;;;;;;;5066966;28;41054;-76
2023/09/12 01:37:14;;;;;;;23.50;20.23;;;;;;;;;;5069087;28;42812;-76
2023/09/12 01:39:43;;;;;;;23.02;18.90;;;;;;;;;;5067864;28;41508;-78
2023/09/12 01:42:11;;;;;;;20.45;17.77;;;;;;;;;;5068095;28;41805;-76
2023/09/12 01:44:40;;;;;;;22.38;17.85;;;;;;;;;;5068194;28;42032;-76
2023/09/12 01:47:09;;;;;;;20.13;17.90;;;;;;;;;;5068162;28;40569;-76
2023/09/12 01:49:36;;;;;;;21.00;18.70;;;;;;;;;;5064982;28;43121;-76
2023/09/12 01:52:05;;;;;;;20.08;17.80;;;;;;;;;;5068817;28;40517;-77
2023/09/12 01:54:33;;;;;;;22.00;17.80;;;;;;;;;;5067167;28;42000;-76
2023/09/12 01:57:01;;;;;;;19.48;17.02;;;;;;;;;;5064914;28;42338;-76
2023/09/12 01:59:29;;;;;;;25.65;19.02;;;;;;;;;;5065827;28;39464;-76
2023/09/12 02:01:58;;;;;;;23.60;18.38;;;;;;;;;;5066828;28;41040;-76
2023/09/12 02:04:26;;;;;;;19.77;17.65;;;;;;;;;;5067731;28;42036;-76
2023/09/12 02:06:55;;;;;;;21.17;18.38;;;;;;;;;;5066683;28;40421;-76
2023/09/12 02:09:23;;;;;;;21.77;17.17;;;;;;;;;;5067662;28;42837;-76
2023/09/12 02:11:51;;;;;;;22.27;18.23;;;;;;;;;;5068415;28;40622;-76
2023/09/12 02:14:19;;;;;;;20.35;17.30;;;;;;;;;;5067569;28;41594;-76
2023/09/12 02:16:47;;;;;;;21.85;17.33;;;;;;;;;;5067905;28;41758;-76
2023/09/12 02:19:17;;;;;;;20.25;16.40;;;;;;;;;;5065515;28;39150;-76
2023/09/12 02:21:45;;;;;;;19.25;16.48;;;;;;;;;;5065709;28;40407;-76
2023/09/12 02:24:13;;;;;;;19.98;17.25;;;;;;;;;;5067606;28;42344;-78
2023/09/12 02:26:41;;;;;;;25.08;17.67;;;;;;;;;;5064164;28;42089;-78
2023/09/12 02:29:09;;;;;;;22.05;16.33;;;;;;;;;;5064812;28;41476;-76
2023/09/12 02:31:37;;;;;;;19.02;16.95;;;;;;;;;;5066644;28;39974;-76
2023/09/12 02:34:06;;;;;;;20.88;17.50;;;;;;;;;;5063518;28;40515;-76
2023/09/12 02:36:35;;;;;;;19.73;17.48;;;;;;;;;;5060537;28;42652;-76
2023/09/12 02:39:03;;;;;;;20.20;17.63;;;;;;;;;;5068024;28;41301;-76
2023/09/12 02:41:32;;;;;;;23.60;18.65;;;;;;;;;;5067458;28;41415;-76
2023/09/12 02:44:00;;;;;;;23.08;18.63;;;;;;;;;;5066801;28;40572;-76
2023/09/12 02:46:28;;;;;;;22.95;18.70;;;;;;;;;;5065499;28;39383;-76
2023/09/12 02:48:56;;;;;;;22.98;18.08;;;;;;;;;;5066117;28;41608;-76
2023/09/12 02:51:25;;;;;;;21.27;16.83;;;;;;;;;;5067842;28;42125;-76
2023/09/12 02:53:55;;;;;;;23.17;18.17;;;;;;;;;;5067259;28;41456;-76
2023/09/12 02:56:23;;;;;;;24.23;19.10;;;;;;;;;;5065858;28;40489;-76
2023/09/12 02:58:51;;;;;;;21.80;18.20;;;;;;;;;;5065861;28;39298;-76
2023/09/12 03:01:19;;;;;;;24.73;20.48;;;;;;;;;;5067907;28;42222;-76
2023/09/12 03:03:47;;;;;;;25.45;20.25;;;;;;;;;;5066980;28;43070;-76
2023/09/12 03:06:16;;;;;;;26.45;19.83;;;;;;;;;;5067785;28;41591;-76
2023/09/12 03:08:44;;;;;;;26.77;20.55;;;;;;;;;;5067035;28;42081;-76
2023/09/12 03:11:13;;;;;;;24.75;19.13;;;;;;;;;;5065607;28;42381;-76
2023/09/12 03:13:41;;;;;;;24.67;19.83;;;;;;;;;;5066038;28;39447;-76
2023/09/12 03:16:10;;;;;;;24.45;19.77;;;;;;;;;;5065971;28;40185;-76
2023/09/12 03:18:38;;;;;;;24.77;19.10;;;;;;;;;;5065817;28;41091;-76
2023/09/12 03:21:07;;;;;;;27.00;21.88;;;;;;;;;;5051861;28;42713;-76
2023/09/12 03:23:35;;;;;;;22.48;18.63;;;;;;;;;;5065134;28;42299;-76
2023/09/12 03:26:03;;;;;;;28.70;20.27;;;;;;;;;;5066893;28;40176;-76
2023/09/12 03:28:33;;;;;;;21.00;18.10;;;;;;;;;;5065291;28;40882;-76
2023/09/12 03:31:06;;;;;;;24.88;19.70;;;;;;;;;;5067944;28;40525;-76
2023/09/12 03:33:36;;;;;;;21.02;18.33;;;;;;;;;;5068935;28;40586;-76
2023/09/12 03:36:04;;;;;;;22.17;17.55;;;;;;;;;;5070896;28;41890;-76
2023/09/12 03:38:33;;;;;;;22.65;17.60;;;;;;;;;;5065923;28;39060;-76
2023/09/12 03:41:01;;;;;;;23.00;17.83;;;;;;;;;;5061349;28;42631;-76
2023/09/12 03:43:30;;;;;;;22.75;17.85;;;;;;;;;;5069424;28;40578;-76
2023/09/12 03:46:00;;;;;;;21.08;16.67;;;;;;;;;;5068278;28;40041;-76
2023/09/12 03:48:30;;;;;;;22.30;17.75;;;;;;;;;;5069784;28;42528;-76
2023/09/12 03:50:58;;;;;;;20.02;16.42;;;;;;;;;;5062578;28;42168;-78
2023/09/12 03:53:27;;;;;;;21.10;16.63;;;;;;;;;;5067846;28;38417;-76
2023/09/12 03:55:55;;;;;;;21.17;16.38;;;;;;;;;;5070544;28;41520;-76
2023/09/12 03:58:24;;;;;;;20.15;16.23;;;;;;;;;;5070275;28;42140;-76
2023/09/12 04:00:52;;;;;;;18.33;15.35;;;;;;;;;;5068628;28;40669;-76
2023/09/12 04:03:22;;;;;;;19.77;16.30;;;;;;;;;;5069886;28;41698;-76
2023/09/12 04:05:50;;;;;;;20.13;15.45;;;;;;;;;;5054450;28;41642;-76
2023/09/12 04:08:18;;;;;;;19.50;15.13;;;;;;;;;;5069535;28;40926;-76
2023/09/12 04:10:47;;;;;;;19.75;15.02;;;;;;;;;;5068585;28;40520;-76
2023/09/12 04:13:15;;;;;;;17.65;14.43;;;;;;;;;;5068066;28;38885;-76
2023/09/12 04:15:43;;;;;;;17.50;14.98;;;;;;;;;;5068028;28;41078;-78
2023/09/12 04:18:11;;;;;;;18.80;14.23;;;;;;;;;;5068759;28;41035;-76
2023/09/12 04:20:40;;;;;;;17.55;14.50;;;;;;;;;;5066874;28;40300;-76
2023/09/12 04:23:08;;;;;;;17.73;14.98;;;;;;;;;;5067697;28;41761;-77
2023/09/12 04:25:36;;;;;;;19.52;14.73;;;;;;;;;;5069337;28;41361;-76
2023/09/12 04:28:05;;;;;;;16.98;13.73;;;;;;;;;;5067558;28;40700;-76
2023/09/12 04:30:33;;;;;;;16.98;14.32;;;;;;;;;;5068099;28;41958;-76
2023/09/12 04:33:01;;;;;;;16.95;13.85;;;;;;;;;;5054477;28;39284;-76
2023/09/12 04:35:33;;;;;;;16.98;13.80;;;;;;;;;;5067590;28;40234;-76
2023/09/12 04:38:03;;;;;;;16.52;14.15;;;;;;;;;;5102556;28;40648;-76
2023/09/12 04:40:31;;;;;;;18.35;13.90;;;;;;;;;;5066224;28;39614;-75
2023/09/12 04:42:59;;;;;;;14.95;13.02;;;;;;;;;;5064853;28;42134;-75
2023/09/12 04:45:27;;;;;;;17.13;13.30;;;;;;;;;;5068048;28;39514;-76
2023/09/12 04:47:55;;;;;;;16.48;13.25;;;;;;;;;;5069815;28;41769;-76
2023/09/12 04:50:24;;;;;;;16.27;12.57;;;;;;;;;;5100677;28;40229;-76
2023/09/12 04:52:52;;;;;;;14.07;12.57;;;;;;;;;;5062262;28;40597;-76
2023/09/12 04:55:21;;;;;;;15.88;12.57;;;;;;;;;;5066542;28;40700;-76
2023/09/12 04:57:49;;;;;;;12.38;10.90;;;;;;;;;;5068233;28;40587;-76
2023/09/12 05:00:17;;;;;;;13.10;11.70;;;;;;;;;;5068091;28;38889;-76
2023/09/12 05:02:46;;;;;;;16.17;11.65;;;;;;;;;;5067868;28;41176;-76
2023/09/12 05:05:14;;;;;;;15.15;11.23;;;;;;;;;;5069459;28;40324;-76
2023/09/12 05:07:42;;;;;;;12.55;11.32;;;;;;;;;;5068996;28;41145;-75
2023/09/12 05:10:10;;;;;;;13.57;10.77;;;;;;;;;;5067884;28;41877;-76
2023/09/12 05:12:39;;;;;;;13.82;10.38;;;;;;;;;;5054497;28;40201;-75
2023/09/12 05:15:08;;;;;;;11.70;10.60;;;;;;;;;;5069094;28;41555;-77
2023/09/12 05:17:36;;;;;;;11.07;9.98;;;;;;;;;;5066592;28;42072;-78
2023/09/12 05:20:05;;;;;;;10.43;9.40;;;;;;;;;;5058756;28;40991;-76
2023/09/12 05:22:35;;;;;;;11.60;9.27;;;;;;;;;;5062465;28;40118;-75
2023/09/12 05:25:03;;;;;;;11.57;10.38;;;;;;;;;;5066075;28;40637;-76
2023/09/12 05:27:31;;;;;;;12.20;9.23;;;;;;;;;;5063603;28;41063;-76
2023/09/12 05:30:01;;;;;;;10.05;9.10;;;;;;;;;;5067262;28;41160;-76
2023/09/12 05:32:29;;;;;;;9.45;8.25;;;;;;;;;;5062459;28;39069;-76
2023/09/12 05:34:57;;;;;;;9.68;8.75;;;;;;;;;;5068325;28;40264;-76
2023/09/12 05:37:45;;;;;;;11.10;9.02;;;;;;;;;;5080458;28;40818;-76
2023/09/12 05:40:13;;;;;;;11.10;8.77;;;;;;;;;;5067044;28;39859;-77
2023/09/12 05:42:41;;;;;;;9.68;8.68;;;;;;;;;;5067154;28;41844;-77
2023/09/12 05:45:11;;;;;;;11.38;9.18;;;;;;;;;;5068483;28;42271;-76
2023/09/12 05:47:39;;;;;;;10.35;8.40;;;;;;;;;;5068613;28;40564;-76
2023/09/12 05:50:08;;;;;;;11.70;8.35;;;;;;;;;;5067088;28;41050;-76
2023/09/12 05:52:36;;;;;;;14.85;8.60;;;;;;;;;;5065126;28;40246;-76
2023/09/12 05:55:04;;;;;;;11.50;8.13;;;;;;;;;;5068831;28;41748;-74
2023/09/12 05:57:33;;;;;;;16.63;8.63;;;;;;;;;;5067654;28;40630;-73
2023/09/12 06:00:05;;;;;;;14.68;9.40;;;;;;;;;;5068009;28;40023;-74
2023/09/12 06:02:40;;;;;;;12.40;9.45;;;;;;;;;;5052289;28;42357;-73
2023/09/12 06:05:08;;;;;;;12.98;9.25;;;;;;;;;;5066513;28;42295;-75
2023/09/12 06:07:37;;;;;;;14.15;9.65;;;;;;;;;;5067139;28;40847;-75
2023/09/12 06:10:08;;;;;;;12.48;10.02;;;;;;;;;;5067363;28;42658;-75
2023/09/12 06:12:36;;;;;;;14.48;9.82;;;;;;;;;;5067770;28;40024;-74
2023/09/12 06:15:05;;;;;;;13.73;9.30;;;;;;;;;;5066204;28;41771;-75
2023/09/12 06:17:33;;;;;;;21.40;10.45;;;;;;;;;;5053843;28;42145;-76
2023/09/12 06:20:03;;;;;;;10.70;9.45;;;;;;;;;;5068316;28;40363;-75
2023/09/12 06:22:31;;;;;;;16.45;11.38;;;;;;;;;;5066361;28;41090;-74
2023/09/12 06:25:00;;;;;;;25.30;13.40;;;;;;;;;;5067567;28;42168;-75
2023/09/12 06:27:28;;;;;;;17.40;13.80;;;;;;;;;;5067286;28;40184;-75
2023/09/12 06:29:56;;;;;;;17.15;11.05;;;;;;;;;;5069122;28;41058;-75
2023/09/12 06:32:24;;;;;;;13.73;10.48;;;;;;;;;;5067905;28;41254;-75
2023/09/12 06:34:52;;;;;;;11.52;10.32;;;;;;;;;;5067557;28;41952;-75
2023/09/12 06:37:21;;;;;;;12.90;10.60;;;;;;;;;;5068153;28;42031;-75
2023/09/12 06:39:50;;;;;;;11.35;10.18;;;;;;;;;;5068499;28;41009;-74
2023/09/12 06:42:18;;;;;;;12.77;10.82;;;;;;;;;;5064643;28;42275;-73
2023/09/12 06:44:46;;;;;;;18.63;16.40;;;;;;;;;;5068370;28;42180;-73
2023/09/12 06:47:14;;;;;;;19.67;17.20;;;;;;;;;;5067402;28;41429;-74
2023/09/12 06:49:42;;;;;;;20.25;15.52;;;;;;;;;;5067065;28;41413;-74
2023/09/12 06:52:13;;;;;;;20.35;17.75;;;;;;;;;;5100653;28;40675;-73
2023/09/12 06:54:42;;;;;;;20.45;18.10;;;;;;;;;;5067734;28;41701;-73
2023/09/12 06:57:10;;;;;;;20.17;18.10;;;;;;;;;;5067476;28;41671;-74
2023/09/12 06:59:38;;;;;;;18.60;15.90;;;;;;;;;;5062601;28;41155;-73
2023/09/12 07:02:07;;;;;;;21.08;17.27;;;;;;;;;;5067980;28;41611;-74
2023/09/12 07:04:35;;;;;;;20.75;17.67;;;;;;;;;;5068294;28;43119;-73
2023/09/12 07:07:04;;;;;;;19.55;17.55;;;;;;;;;;5071423;28;41319;-73
2023/09/12 07:09:33;;;;;;;20.88;18.48;;;;;;;;;;5070099;28;41303;-73
2023/09/12 07:12:05;;;;;;;20.98;17.23;;;;;;;;;;5071295;28;42186;-72
2023/09/12 07:14:33;;;;;;;24.33;19.30;;;;;;;;;;5070224;28;40477;-73
2023/09/12 07:17:10;;;;;;;24.60;20.83;;;;;;;;;;5070688;28;42829;-74
2023/09/12 07:19:41;;;;;;;23.75;21.23;;;;;;;;;;5071369;28;40798;-74
2023/09/12 07:22:11;;;;;;;26.55;22.02;;;;;;;;;;5070637;28;41613;-75
2023/09/12 07:24:39;;;;;;;26.95;23.23;;;;;;;;;;5102907;28;39883;-74
2023/09/12 07:27:09;;;;;;;27.67;21.90;;;;;;;;;;5071479;28;41471;-75
2023/09/12 07:29:37;;;;;;;26.50;22.23;;;;;;;;;;5071572;28;41548;-74
2023/09/12 07:32:05;;;;;;;28.00;22.92;;;;;;;;;;5071170;28;42003;-73
2023/09/12 07:34:33;;;;;;;31.00;24.67;;;;;;;;;;5070739;28;40541;-72
2023/09/12 07:37:02;;;;;;;25.33;21.80;;;;;;;;;;5071006;28;41432;-72
2023/09/12 07:39:30;;;;;;;29.08;22.90;;;;;;;;;;5070552;28;40491;-72
2023/09/12 07:41:58;;;;;;;30.05;23.80;;;;;;;;;;5071237;28;42559;-71
2023/09/12 07:44:27;;;;;;;33.83;24.65;;;;;;;;;;5069637;28;43044;-72
2023/09/12 07:46:55;;;;;;;30.13;25.48;;;;;;;;;;5068776;28;39282;-72
2023/09/12 07:49:25;;;;;;;34.25;25.77;;;;;;;;;;5070313;28;42339;-71
2023/09/12 07:51:54;;;;;;;30.08;24.60;;;;;;;;;;5061281;28;42392;-71
2023/09/12 07:54:22;;;;;;;25.27;21.63;;;;;;;;;;5070311;28;40563;-72
2023/09/12 07:56:50;;;;;;;27.52;22.70;;;;;;;;;;5070113;28;42543;-71
2023/09/12 07:59:18;;;;;;;24.20;20.25;;;;;;;;;;5069933;28;42128;-71
2023/09/12 08:01:48;;;;;;;27.50;21.92;;;;;;;;;;5070633;28;41569;-71
2023/09/12 08:04:16;;;;;;;25.90;20.80;;;;;;;;;;5070616;28;41634;-71
2023/09/12 08:06:44;;;;;;;26.48;21.08;;;;;;;;;;5069580;28;41488;-70
2023/09/12 08:09:24;;;;;;;24.75;21.52;;;;;;;;;;5067533;28;41441;-71
2023/09/12 08:11:52;;;;;;;28.40;21.45;;;;;;;;;;5068951;28;41117;-71
2023/09/12 08:14:21;;;;;;;28.80;25.05;;;;;;;;;;5069929;28;40293;-71
2023/09/12 08:16:50;;;;;;;29.85;23.95;;;;;;;;;;5068982;28;42284;-70
2023/09/12 08:19:18;;;;;;;31.25;23.85;;;;;;;;;;5069501;28;41653;-70
2023/09/12 08:21:46;;;;;;;30.52;25.92;;;;;;;;;;5070232;28;40586;-70
2023/09/12 08:24:18;;;;;;;33.30;24.17;;;;;;;;;;5069253;28;41896;-71
2023/09/12 08:26:46;;;;;;;32.85;27.30;;;;;;;;;;5069425;28;40420;-71
2023/09/12 08:29:14;;;;;;;33.90;26.08;;;;;;;;;;5070120;28;42163;-71
2023/09/12 08:31:42;;;;;;;29.67;24.13;;;;;;;;;;5069604;28;43160;-71
2023/09/12 08:34:11;;;;;;;31.27;26.52;;;;;;;;;;5069452;28;41099;-71
2023/09/12 08:36:39;;;;;;;29.52;24.55;;;;;;;;;;5068903;28;42131;-71
2023/09/12 08:39:12;;;;;;;37.17;23.65;;;;;;;;;;5069651;28;43097;-72
2023/09/12 08:41:40;;;;;;;30.58;24.27;;;;;;;;;;5066490;28;40919;-71
2023/09/12 08:44:08;;;;;;;34.88;23.50;;;;;;;;;;5068382;28;40670;-71
2023/09/12 08:46:36;;;;;;;31.02;24.95;;;;;;;;;;5068034;28;39078;-71
2023/09/12 08:49:05;;;;;;;32.35;24.58;;;;;;;;;;5069122;28;41751;-72
2023/09/12 08:51:34;;;;;;;29.13;24.67;;;;;;;;;;5068871;28;43031;-72
2023/09/12 08:54:03;;;;;;;29.73;24.10;;;;;;;;;;5069415;28;40156;-72
2023/09/12 08:56:34;;;;;;;31.55;22.58;;;;;;;;;;5065875;28;41679;-71
2023/09/12 08:59:02;;;;;;;28.58;21.38;;;;;;;;;;5069485;28;42086;-72
2023/09/12 09:01:30;;;;;;;29.30;22.10;;;;;;;;;;5068208;28;40413;-72
2023/09/12 09:03:58;;;;;;;26.85;22.85;;;;;;;;;;5069608;28;41289;-72
2023/09/12 09:06:26;;;;;;;25.70;22.80;;;;;;;;;;5068816;28;40461;-73
2023/09/12 09:08:56;;;;;;;26.63;23.38;;;;;;;;;;5068895;28;41622;-72
2023/09/12 09:11:27;;;;;;;26.40;22.25;;;;;;;;;;5069091;28;43170;-72
2023/09/12 09:13:56;;;;;;;26.08;21.98;;;;;;;;;;5065966;28;40507;-72
2023/09/12 09:16:24;;;;;;;23.92;21.33;;;;;;;;;;5068054;28;41795;-72
2023/09/12 09:18:52;;;;;;;28.08;22.70;;;;;;;;;;5066465;28;41616;-72
2023/09/12 09:21:22;;;;;;;28.00;22.27;;;;;;;;;;5068856;28;41474;-72
2023/09/12 09:23:50;;;;;;;29.75;23.15;;;;;;;;;;5067856;28;41797;-72
2023/09/12 09:26:19;;;;;;;27.05;22.77;;;;;;;;;;5069267;28;42497;-72
2023/09/12 09:29:01;;;;;;;26.48;20.48;;;;;;;;;;5068212;28;43123;-73
2023/09/12 09:31:29;;;;;;;29.27;23.73;;;;;;;;;;5058556;28;42133;-73
2023/09/12 09:33:57;;;;;;;27.40;21.83;;;;;;;;;;5069876;28;40300;-72
2023/09/12 09:36:26;;;;;;;25.83;20.50;;;;;;;;;;5069804;28;20229;-72
2023/09/12 09:38:54;;;;;;;24.95;21.40;;;;;;;;;;5067698;28;42494;-74
2023/09/12 09:41:24;;;;;;;32.55;24.17;;;;;;;;;;5069165;28;40569;-74
2023/09/12 09:43:52;;;;;;;30.05;24.65;;;;;;;;;;5069503;28;42154;-73
2023/09/12 09:46:20;;;;;;;30.63;24.42;;;;;;;;;;5068327;28;43234;-73
2023/09/12 09:48:49;;;;;;;32.60;24.73;;;;;;;;;;5070020;28;41474;-73
2023/09/12 09:51:17;;;;;;;32.80;22.65;;;;;;;;;;5068459;28;42619;-73
2023/09/12 09:53:45;;;;;;;28.17;23.60;;;;;;;;;;5069416;28;41279;-73
2023/09/12 09:56:17;;;;;;;27.17;22.75;;;;;;;;;;5070605;28;42079;-73
2023/09/12 09:58:49;;;;;;;29.73;22.83;;;;;;;;;;5069074;28;42368;-73
2023/09/12 10:01:18;;;;;;;29.15;22.65;;;;;;;;;;5069312;28;41524;-73
2023/09/12 10:03:47;;;;;;;25.63;21.98;;;;;;;;;;5055044;28;41557;-72
2023/09/12 10:06:15;;;;;;;25.75;21.88;;;;;;;;;;5066674;28;41987;-73
2023/09/12 10:08:44;;;;;;;26.98;21.13;;;;;;;;;;5066630;28;40457;-73
2023/09/12 10:11:12;;;;;;;28.02;20.10;;;;;;;;;;5070059;28;42660;-73
2023/09/12 10:13:41;;;;;;;24.17;19.98;;;;;;;;;;5068312;28;39642;-73
2023/09/12 10:16:11;;;;;;;26.13;21.33;;;;;;;;;;5067217;28;41444;-73
2023/09/12 10:18:41;;;;;;;28.42;21.58;;;;;;;;;;5057197;28;43072;-73
2023/09/12 10:21:11;;;;;;;30.30;23.85;;;;;;;;;;5069352;28;41133;-73
2023/09/12 10:23:41;;;;;;;27.42;22.70;;;;;;;;;;5067348;28;40007;-73
2023/09/12 10:26:12;;;;;;;29.85;22.40;;;;;;;;;;5067089;28;42154;-72
2023/09/12 10:28:41;;;;;;;27.23;22.40;;;;;;;;;;5068819;28;41192;-72
2023/09/12 10:31:12;;;;;;;25.98;21.45;;;;;;;;;;5069196;28;41745;-73
2023/09/12 10:33:41;;;;;;;29.42;22.95;;;;;;;;;;5066719;28;32710;-73
2023/09/12 10:36:10;;;;;;;23.48;19.35;;;;;;;;;;5061229;28;42491;-73
2023/09/12 10:38:40;;;;;;;24.80;19.63;;;;;;;;;;5062722;28;41644;-72
2023/09/12 10:41:09;;;;;;;23.77;17.42;;;;;;;;;;5065177;28;40415;-71
2023/09/12 10:43:37;;;;;;;20.90;15.85;;;;;;;;;;5064617;28;41675;-71
2023/09/12 10:46:05;;;;;;;25.75;15.98;;;;;;;;;;5063436;28;43045;-71
2023/09/12 10:48:34;;;;;;;23.58;16.83;;;;;;;;;;5058152;28;40513;-73
2023/09/12 10:51:03;;;;;;;21.15;16.80;;;;;;;;;;5065637;28;41456;-72
2023/09/12 10:53:33;;;;;;;22.17;15.13;;;;;;;;;;5066970;28;41859;-79
2023/09/12 10:56:01;;;;;;;23.05;17.10;;;;;;;;;;5065215;28;42410;-75
2023/09/12 10:58:29;;;;;;;21.25;17.27;;;;;;;;;;5058594;28;43148;-73
2023/09/12 11:01:16;;;;;;;22.20;18.50;;;;;;;;;;5062434;28;40131;-74
2023/09/12 11:03:45;;;;;;;25.42;19.33;;;;;;;;;;5063284;28;42604;-74
2023/09/12 11:06:23;;;;;;;27.80;19.85;;;;;;;;;;5064066;28;41756;-74
2023/09/12 11:09:06;;;;;;;26.63;19.42;;;;;;;;;;5064770;28;41510;-75
2023/09/12 11:11:34;;;;;;;23.25;18.30;;;;;;;;;;5058066;28;40867;-74
2023/09/12 11:14:05;;;;;;;25.13;18.85;;;;;;;;;;5066134;28;41990;-74
2023/09/12 11:16:34;;;;;;;25.58;18.23;;;;;;;;;;5061284;28;40631;-74
2023/09/12 11:19:19;;;;;;;27.55;19.30;;;;;;;;;;5061463;28;42046;-70
2023/09/12 11:21:48;;;;;;;26.35;17.10;;;;;;;;;;5055651;28;40500;-74
2023/09/12 11:24:16;;;;;;;25.02;19.02;;;;;;;;;;5066108;28;41665;-74
2023/09/12 11:26:54;;;;;;;26.80;20.67;;;;;;;;;;5060559;28;42320;-75
2023/09/12 11:29:28;;;;;;;27.90;19.10;;;;;;;;;;5060021;28;39580;-82
2023/09/12 11:31:58;;;;;;;23.65;18.98;;;;;;;;;;5055907;28;41339;-79
2023/09/12 11:34:28;;;;;;;22.70;18.38;;;;;;;;;;5066967;28;42041;-79
2023/09/12 11:36:57;;;;;;;23.30;18.75;;;;;;;;;;5067094;28;40179;-77
2023/09/12 11:39:25;;;;;;;25.42;18.83;;;;;;;;;;5056532;28;42630;-77
2023/09/12 11:41:54;;;;;;;24.90;17.13;;;;;;;;;;5066918;28;41974;-76
2023/09/12 11:44:22;;;;;;;24.17;17.95;;;;;;;;;;5065473;28;40234;-78
2023/09/12 11:46:50;;;;;;;23.75;17.60;;;;;;;;;;5067429;28;41575;-78
2023/09/12 11:49:19;;;;;;;25.02;16.95;;;;;;;;;;5068373;28;40135;-78
2023/09/12 11:51:49;;;;;;;24.92;16.50;;;;;;;;;;5069879;28;42598;-78
2023/09/12 11:54:20;;;;;;;25.55;16.52;;;;;;;;;;5071750;28;41779;-78
2023/09/12 11:56:49;;;;;;;19.90;15.38;;;;;;;;;;5067879;28;40458;-78
2023/09/12 11:59:18;;;;;;;18.60;14.10;;;;;;;;;;5070666;28;42367;-79
2023/09/12 12:01:47;;;;;;;17.88;13.15;;;;;;;;;;5071501;28;42377;-79
2023/09/12 12:04:15;;;;;;;23.67;13.63;;;;;;;;;;5061623;28;42647;-79
2023/09/12 12:06:44;;;;;;;20.70;15.45;;;;;;;;;;5064400;28;43471;-79
2023/09/12 12:09:14;;;;;;;18.60;14.77;;;;;;;;;;5063807;28;40615;-79
2023/09/12 12:11:42;;;;;;;16.52;14.23;;;;;;;;;;5069319;28;41205;-79
2023/09/12 12:14:15;;;;;;;16.17;14.25;;;;;;;;;;5059655;28;42329;-79
2023/09/12 12:16:43;;;;;;;18.30;15.18;;;;;;;;;;5066315;28;40978;-78
2023/09/12 12:19:11;;;;;;;19.70;14.15;;;;;;;;;;5054459;28;41991;-79
2023/09/12 12:21:39;;;;;;;16.58;14.15;;;;;;;;;;5066979;28;42824;-79
2023/09/12 12:24:08;;;;;;;18.25;13.10;;;;;;;;;;5070664;28;41833;-79
2023/09/12 12:26:37;;;;;;;15.00;13.13;;;;;;;;;;5069454;28;41782;-78
2023/09/12 12:29:05;;;;;;;16.20;13.55;;;;;;;;;;5068888;28;40494;-79
2023/09/12 12:31:33;;;;;;;15.68;11.98;;;;;;;;;;5059883;28;42369;-76
2023/09/12 12:34:03;;;;;;;15.93;11.68;;;;;;;;;;5054414;28;43097;-76
2023/09/12 12:36:51;;;;;;;25.63;11.88;;;;;;;;;;5054797;28;41014;-76
2023/09/12 12:39:25;;;;;;;24.83;12.57;;;;;;;;;;5059377;28;41902;-77
2023/09/12 12:41:55;;;;;;;15.68;11.05;;;;;;;;;;5068049;28;41681;-77
2023/09/12 12:44:23;;;;;;;20.40;11.23;;;;;;;;;;5060862;28;41849;-77
2023/09/12 12:46:51;;;;;;;14.90;11.45;;;;;;;;;;5063770;28;42009;-75
2023/09/12 12:49:20;;;;;;;15.50;10.65;;;;;;;;;;5055240;28;41414;-76
2023/09/12 12:51:48;;;;;;;15.43;11.50;;;;;;;;;;5066762;28;41999;-75
2023/09/12 12:54:16;;;;;;;17.27;10.73;;;;;;;;;;5068029;28;42839;-75
2023/09/12 12:56:44;;;;;;;17.33;10.48;;;;;;;;;;5068981;28;40645;-75
2023/09/12 12:59:13;;;;;;;15.73;9.98;;;;;;;;;;5059496;28;41668;-75
2023/09/12 13:01:41;;;;;;;12.00;10.50;;;;;;;;;;5068046;28;42075;-75
2023/09/12 13:04:10;;;;;;;11.90;9.23;;;;;;;;;;5069034;28;40651;-75
2023/09/12 13:06:39;;;;;;;12.30;8.95;;;;;;;;;;5069021;28;42692;-75
2023/09/12 13:09:08;;;;;;;11.27;8.73;;;;;;;;;;5068338;28;41088;-75
2023/09/12 13:11:37;;;;;;;10.73;8.50;;;;;;;;;;5067949;28;41636;-75
2023/09/12 13:14:09;;;;;;;12.10;8.38;;;;;;;;;;5069345;28;42141;-75
2023/09/12 13:16:40;;;;;;;11.75;8.27;;;;;;;;;;5066896;28;39986;-75
2023/09/12 13:19:08;;;;;;;14.85;8.60;;;;;;;;;;5068749;28;42326;-75
2023/09/12 13:21:37;;;;;;;15.55;9.07;;;;;;;;;;5068526;28;42952;-75
2023/09/12 13:24:05;;;;;;;15.05;9.30;;;;;;;;;;5068686;28;40138;-75
2023/09/12 13:26:33;;;;;;;12.68;8.85;;;;;;;;;;5068374;28;41670;-75
2023/09/12 13:29:01;;;;;;;12.27;8.98;;;;;;;;;;5068616;28;42120;-75
2023/09/12 13:31:29;;;;;;;11.48;8.93;;;;;;;;;;5068311;28;42241;-75
2023/09/12 13:33:59;;;;;;;9.32;7.90;;;;;;;;;;5067501;28;41118;-75
2023/09/12 13:36:27;;;;;;;12.20;7.88;;;;;;;;;;5067424;28;40568;-75
2023/09/12 13:38:55;;;;;;;10.82;8.57;;;;;;;;;;5066944;28;40556;-75
2023/09/12 13:41:25;;;;;;;9.27;7.88;;;;;;;;;;5069160;28;42093;-75
2023/09/12 13:43:53;;;;;;;9.82;8.32;;;;;;;;;;5068403;28;40146;-77
2023/09/12 13:46:21;;;;;;;11.00;8.50;;;;;;;;;;5068781;28;43134;-75
2023/09/12 13:48:49;;;;;;;10.73;8.98;;;;;;;;;;5068423;28;42544;-75
2023/09/12 13:51:19;;;;;;;9.82;7.88;;;;;;;;;;5066980;28;40594;-75
2023/09/12 13:53:47;;;;;;;8.57;7.50;;;;;;;;;;5068194;28;42804;-75
2023/09/12 13:56:15;;;;;;;9.80;7.97;;;;;;;;;;5065998;28;41076;-75
2023/09/12 13:58:57;;;;;;;10.32;8.07;;;;;;;;;;5065270;28;42759;-75
2023/09/12 14:01:25;;;;;;;10.25;7.90;;;;;;;;;;5067658;28;42126;-75
2023/09/12 14:04:02;;;;;;;9.68;8.18;;;;;;;;;;5065429;28;41247;-75
2023/09/12 14:06:32;;;;;;;8.48;7.28;;;;;;;;;;5068118;28;41652;-75
2023/09/12 14:09:01;;;;;;;8.55;7.32;;;;;;;;;;5068440;28;42013;-75
2023/09/12 14:11:30;;;;;;;8.68;7.63;;;;;;;;;;5067639;28;40310;-75
2023/09/12 14:14:03;;;;;;;9.43;6.85;;;;;;;;;;5051399;28;41263;-77
2023/09/12 14:16:44;;;;;;;7.15;6.45;;;;;;;;;;5065004;28;41139;-76
2023/09/12 14:19:16;;;;;;;7.65;6.78;;;;;;;;;;5064578;28;42700;-75
2023/09/12 14:21:45;;;;;;;7.50;6.72;;;;;;;;;;5067800;28;43087;-77
2023/09/12 14:24:15;;;;;;;7.22;6.07;;;;;;;;;;5067757;28;41156;-77
2023/09/12 14:26:46;;;;;;;7.40;6.03;;;;;;;;;;5067120;28;41614;-77
2023/09/12 14:29:14;;;;;;;9.32;6.88;;;;;;;;;;5068117;28;41498;-77
2023/09/12 14:31:49;;;;;;;8.48;6.10;;;;;;;;;;5068076;28;40238;-77